Time;durP1;ratioP1;P1;durP2;ratioP2;P2;SDS_P1;SDS_P2;PMS_P1;PMS_P2;Temp;Humidity;BMP_temperature;BMP_pressure;BME280_temperature;BME280_humidity;BME280_pressure;Samples;Min_cycle;Max_cycle;Signal;HPM_P1;HPM_P2
2022/06/09 00:00:37;;;;;;;5.25;2.10;;;;;;;16.07;56.44;100041.47;5017133;28;20069;-66
2022/06/09 00:03:14;;;;;;;6.05;2.22;;;;;;;16.06;56.07;100047.09;5017152;28;20081;-65
2022/06/09 00:05:42;;;;;;;4.93;2.13;;;;;;;15.98;56.44;100053.53;5018184;28;20092;-65
2022/06/09 00:08:09;;;;;;;6.00;1.90;;;;;;;16.03;56.54;100051.06;5017475;28;20149;-65
2022/06/09 00:10:41;;;;;;;6.10;2.08;;;;;;;16.11;56.22;100048.09;5018136;28;20050;-65
2022/06/09 00:13:07;;;;;;;4.25;1.80;;;;;;;16.14;56.03;100050.38;5016733;28;20100;-65
2022/06/09 00:15:35;;;;;;;3.88;2.08;;;;;;;16.15;56.12;100043.91;5016833;28;20050;-65
2022/06/09 00:18:02;;;;;;;5.47;1.98;;;;;;;16.21;56.24;100057.66;5016578;28;20474;-65
2022/06/09 00:20:29;;;;;;;2.75;1.90;;;;;;;16.20;56.40;100048.72;5016552;28;20448;-65
2022/06/09 00:22:55;;;;;;;4.97;2.00;;;;;;;16.24;56.58;100051.81;5017434;28;20136;-64
2022/06/09 00:25:22;;;;;;;4.88;1.70;;;;;;;16.15;57.20;100051.22;5016765;28;20562;-66
2022/06/09 00:27:48;;;;;;;3.58;2.20;;;;;;;16.09;57.83;100066.44;5016663;28;20545;-65
2022/06/09 00:30:17;;;;;;;3.67;2.10;;;;;;;16.09;58.07;100069.16;5016205;28;20387;-65
2022/06/09 00:32:44;;;;;;;4.78;1.70;;;;;;;16.13;58.03;100066.84;5016289;28;20092;-64
2022/06/09 00:35:12;;;;;;;3.80;1.83;;;;;;;16.09;58.40;100074.56;5016335;28;20495;-64
2022/06/09 00:37:39;;;;;;;2.00;1.60;;;;;;;16.07;58.76;100063.09;5017060;28;20108;-65
2022/06/09 00:40:07;;;;;;;4.53;1.70;;;;;;;16.08;58.90;100070.16;5015617;28;20540;-65
2022/06/09 00:42:35;;;;;;;4.10;2.03;;;;;;;16.09;59.13;100065.59;5016013;28;20140;-65
2022/06/09 00:45:31;;;;;;;3.83;1.98;;;;;;;16.04;59.20;100062.69;5016518;28;20575;-65
2022/06/09 00:48:10;;;;;;;4.35;1.80;;;;;;;16.04;59.34;100068.94;5016236;28;20133;-65
2022/06/09 00:50:40;;;;;;;4.80;1.75;;;;;;;16.06;59.38;100066.88;5016248;28;20077;-65
2022/06/09 00:53:13;;;;;;;3.28;1.88;;;;;;;16.01;59.82;100069.34;5017005;28;20058;-65
2022/06/09 00:55:41;;;;;;;2.00;1.80;;;;;;;16.04;59.77;100074.34;5016879;28;20081;-65
2022/06/09 00:58:13;;;;;;;3.85;1.80;;;;;;;15.99;59.87;100071.47;5017148;28;20081;-66
2022/06/09 01:01:05;;;;;;;3.05;1.75;;;;;;;15.99;59.61;100076.88;5015985;28;20137;-65
2022/06/09 01:03:47;;;;;;;5.43;1.75;;;;;;;15.93;59.75;100075.00;5016325;28;20482;-66
2022/06/09 01:10:02;;;;;;;5.07;1.80;;;;;;;15.87;59.92;100073.97;5016030;28;20049;-66
2022/06/09 01:12:30;;;;;;;3.33;1.90;;;;;;;15.83;60.00;100071.91;5016088;28;20147;-65
2022/06/09 01:15:01;;;;;;;4.88;2.10;;;;;;;15.77;59.95;100078.97;5016458;28;20050;-65
2022/06/09 01:18:04;;;;;;;2.50;1.90;;;;;;;15.70;60.34;100076.28;5016860;28;20133;-65
2022/06/09 01:20:36;;;;;;;1.95;1.73;;;;;;;15.75;59.93;100080.25;5016256;28;20050;-65
2022/06/09 01:23:23;;;;;;;3.63;1.75;;;;;;;15.71;60.13;100088.78;5016071;28;20053;-66
2022/06/09 01:26:08;;;;;;;2.45;1.58;;;;;;;15.63;60.40;100082.72;5016716;28;20053;-65
2022/06/09 01:28:53;;;;;;;2.15;1.83;;;;;;;15.59;60.37;100090.41;5015539;28;20148;-65
2022/06/09 01:31:35;;;;;;;4.13;1.70;;;;;;;15.58;60.52;100077.94;5015688;28;20500;-65
2022/06/09 01:34:18;;;;;;;7.30;1.88;;;;;;;15.58;60.35;100072.53;5015702;28;20076;-65
2022/06/09 01:36:51;;;;;;;2.28;1.73;;;;;;;15.59;60.23;100076.88;5015587;28;20506;-65
2022/06/09 01:39:27;;;;;;;6.13;2.20;;;;;;;15.53;60.59;100080.41;5015441;28;20526;-65
2022/06/09 01:41:53;;;;;;;4.97;2.20;;;;;;;15.49;60.64;100071.06;5015484;28;20410;-65
2022/06/09 01:44:20;;;;;;;6.07;1.88;;;;;;;15.50;60.58;100072.75;5015147;28;20096;-66
2022/06/09 01:46:47;;;;;;;6.68;2.00;;;;;;;15.48;60.47;100070.22;5015661;28;20073;-65
2022/06/09 01:49:19;;;;;;;1.90;1.50;;;;;;;15.48;60.56;100070.22;5015218;28;20056;-65
2022/06/09 01:51:49;;;;;;;5.57;1.88;;;;;;;15.45;60.70;100075.22;5014671;28;20077;-66
2022/06/09 01:54:23;;;;;;;4.25;1.98;;;;;;;15.47;60.59;100073.16;5014859;28;20142;-65
2022/06/09 01:57:03;;;;;;;3.50;1.50;;;;;;;15.45;60.40;100075.22;5014604;28;20141;-65
2022/06/09 01:59:39;;;;;;;3.20;1.90;;;;;;;15.39;60.56;100070.66;5015293;28;20569;-65
2022/06/09 02:02:16;;;;;;;3.42;1.55;;;;;;;15.37;60.43;100076.28;5015855;28;20172;-65
2022/06/09 02:05:02;;;;;;;3.67;1.80;;;;;;;15.39;60.34;100081.47;5015407;28;20054;-65
2022/06/09 02:07:32;;;;;;;4.28;2.28;;;;;;;15.39;60.09;100074.19;5014518;28;20049;-65
2022/06/09 02:10:16;;;;;;;2.20;1.80;;;;;;;15.30;60.30;100078.16;5014951;28;20553;-65
2022/06/09 02:12:44;;;;;;;2.42;1.50;;;;;;;15.31;60.05;100078.97;5015046;28;20465;-65
2022/06/09 02:15:16;;;;;;;4.70;1.60;;;;;;;15.32;60.07;100080.63;5014313;28;20092;-65
2022/06/09 02:17:46;;;;;;;3.25;1.75;;;;;;;15.16;60.22;100077.28;5014976;28;20459;-65
2022/06/09 02:20:14;;;;;;;3.67;2.03;;;;;;;15.15;60.20;100091.00;5016028;28;20446;-65
2022/06/09 02:22:41;;;;;;;4.18;1.92;;;;;;;15.03;60.09;100077.28;5015981;28;20073;-65
2022/06/09 02:25:08;;;;;;;4.28;1.88;;;;;;;14.92;60.58;100076.00;5015381;28;20497;-65
2022/06/09 02:27:35;;;;;;;5.45;2.15;;;;;;;14.95;60.51;100091.81;5015174;28;20081;-65
2022/06/09 02:30:03;;;;;;;4.25;1.92;;;;;;;14.93;60.76;100079.53;5014443;28;20049;-65
2022/06/09 02:32:29;;;;;;;7.05;4.40;;;;;;;14.90;60.79;100083.47;5014743;28;20100;-65
2022/06/09 02:34:56;;;;;;;7.60;4.07;;;;;;;14.91;60.66;100087.00;5014594;28;20088;-65
2022/06/09 02:37:22;;;;;;;4.43;2.85;;;;;;;14.91;60.67;100089.69;5014619;28;20140;-65
2022/06/09 02:39:49;;;;;;;3.13;1.73;;;;;;;14.85;60.79;100093.25;5014034;28;20136;-66
2022/06/09 02:42:15;;;;;;;4.50;1.80;;;;;;;14.82;60.85;100090.94;5014384;28;20140;-65
2022/06/09 02:44:42;;;;;;;7.53;1.73;;;;;;;14.83;61.06;100095.28;5014358;28;20085;-65
2022/06/09 02:47:09;;;;;;;3.72;1.85;;;;;;;14.76;61.17;100098.81;5014750;28;20132;-65
2022/06/09 02:49:35;;;;;;;3.53;1.88;;;;;;;14.73;61.68;100103.78;5015413;28;20057;-65
2022/06/09 02:52:02;;;;;;;5.25;2.08;;;;;;;14.68;61.73;100112.47;5015159;28;20084;-65
2022/06/09 02:54:29;;;;;;;4.75;2.22;;;;;;;14.68;61.78;100115.16;5014981;28;20058;-65
2022/06/09 02:56:55;;;;;;;5.18;1.80;;;;;;;14.68;61.92;100111.63;5014894;28;20164;-64
2022/06/09 02:59:22;;;;;;;3.47;2.00;;;;;;;14.65;62.05;100107.47;5015078;28;20049;-65
2022/06/09 03:01:48;;;;;;;6.40;2.10;;;;;;;14.62;62.11;100113.25;5014473;28;20046;-64
2022/06/09 03:04:15;;;;;;;4.95;2.40;;;;;;;14.56;62.38;100113.22;5017505;28;20058;-65
2022/06/09 03:06:42;;;;;;;7.10;2.28;;;;;;;14.53;62.41;100109.06;5018612;28;20092;-65
2022/06/09 03:09:08;;;;;;;5.00;2.22;;;;;;;14.48;62.49;100114.25;5018801;28;20080;-65
2022/06/09 03:11:35;;;;;;;3.03;1.98;;;;;;;14.46;62.57;100110.91;5018505;28;20088;-65
2022/06/09 03:14:01;;;;;;;4.35;1.98;;;;;;;14.38;62.83;100113.78;5001088;28;20089;-65
2022/06/09 03:16:28;;;;;;;2.47;1.83;;;;;;;14.37;62.95;100117.53;5018748;28;20128;-65
2022/06/09 03:18:55;;;;;;;3.13;1.90;;;;;;;14.39;62.90;100112.75;5017535;28;20056;-65
2022/06/09 03:21:21;;;;;;;3.78;1.70;;;;;;;14.36;63.05;100123.94;5018219;28;20134;-66
2022/06/09 03:23:49;;;;;;;6.13;2.00;;;;;;;14.32;63.05;100119.97;5017617;28;20050;-65
2022/06/09 03:26:16;;;;;;;2.55;1.90;;;;;;;14.27;63.22;100121.41;5018830;28;20474;-65
2022/06/09 03:28:42;;;;;;;3.22;2.03;;;;;;;14.28;63.47;100131.16;5018031;28;20054;-65
2022/06/09 03:31:09;;;;;;;6.13;1.90;;;;;;;14.29;63.04;100124.75;5018004;28;20045;-66
2022/06/09 03:33:38;;;;;;;5.18;1.73;;;;;;;14.30;62.86;100129.09;5017999;28;20045;-66
2022/06/09 03:36:05;;;;;;;3.08;1.90;;;;;;;14.20;63.30;100128.63;5018651;28;20049;-66
2022/06/09 03:38:32;;;;;;;2.88;2.15;;;;;;;14.19;63.24;100131.53;5017859;28;20493;-65
2022/06/09 03:40:58;;;;;;;7.03;1.90;;;;;;;14.16;63.34;100138.16;5017561;28;20046;-65
2022/06/09 03:43:25;;;;;;;4.07;2.25;;;;;;;14.17;63.24;100138.97;5017410;28;20066;-65
2022/06/09 03:45:52;;;;;;;5.80;1.90;;;;;;;14.22;62.90;100134.66;5017933;28;20478;-66
2022/06/09 03:48:18;;;;;;;3.15;1.88;;;;;;;14.29;62.68;100140.09;5017254;28;20050;-65
2022/06/09 03:50:45;;;;;;;6.22;2.30;;;;;;;14.30;62.57;100142.59;5017600;28;20136;-65
2022/06/09 03:53:11;;;;;;;3.90;2.05;;;;;;;14.36;62.47;100153.59;5018049;28;20135;-65
2022/06/09 03:55:38;;;;;;;4.10;1.55;;;;;;;14.36;62.53;100146.38;5017621;28;20057;-65
2022/06/09 03:58:05;;;;;;;2.85;1.50;;;;;;;14.43;61.99;100147.25;5017573;28;20085;-65
2022/06/09 04:00:32;;;;;;;3.58;2.00;;;;;;;14.44;62.01;100148.91;5017459;28;20074;-65
2022/06/09 04:02:59;;;;;;;4.35;2.10;;;;;;;14.41;62.31;100151.16;5017003;28;20050;-65
2022/06/09 04:05:27;;;;;;;3.90;1.92;;;;;;;14.46;62.21;100151.38;5017894;28;20054;-65
2022/06/09 04:07:55;;;;;;;2.75;1.75;;;;;;;14.52;61.77;100156.00;5017079;28;20050;-65
2022/06/09 04:10:25;;;;;;;5.78;2.05;;;;;;;14.47;61.72;100145.81;5016979;28;20045;-65
2022/06/09 04:12:51;;;;;;;3.80;1.80;;;;;;;14.54;61.65;100151.22;5016661;28;20137;-65
2022/06/09 04:15:19;;;;;;;4.80;1.70;;;;;;;14.46;61.70;100157.63;5016283;28;20092;-65
2022/06/09 04:17:47;;;;;;;4.88;2.00;;;;;;;14.54;61.59;100154.75;5016734;28;20104;-65
2022/06/09 04:20:18;;;;;;;3.38;1.70;;;;;;;14.56;61.54;100159.13;5017006;28;20041;-64
2022/06/09 04:22:45;;;;;;;4.10;1.75;;;;;;;14.60;61.44;100160.38;5016957;28;20140;-65
2022/06/09 04:25:16;;;;;;;3.65;1.70;;;;;;;14.56;61.55;100162.66;5016950;28;20073;-65
2022/06/09 04:27:43;;;;;;;3.55;1.80;;;;;;;14.57;61.37;100164.34;5016830;28;20085;-65
2022/06/09 04:30:10;;;;;;;5.45;2.20;;;;;;;14.57;61.46;100164.34;5016639;28;20398;-65
2022/06/09 04:32:37;;;;;;;6.10;1.63;;;;;;;14.60;61.38;100163.06;5016244;28;20049;-65
2022/06/09 04:35:04;;;;;;;5.40;1.95;;;;;;;14.58;61.62;100170.56;5016588;28;20102;-65
2022/06/09 04:40:16;;;;;;;2.88;1.52;;;;;;;14.80;60.86;100168.59;5016433;28;20089;-65
2022/06/09 04:42:43;;;;;;;3.97;1.50;;;;;;;14.80;60.78;100168.59;5016176;28;20490;-65
2022/06/09 04:45:10;;;;;;;3.08;1.60;;;;;;;14.92;60.62;100177.81;5017080;28;20046;-66
2022/06/09 04:47:36;;;;;;;4.20;1.90;;;;;;;14.82;60.83;100182.75;5016345;28;20092;-65
2022/06/09 04:50:03;;;;;;;5.57;1.63;;;;;;;15.01;60.08;100176.56;5016382;28;20457;-65
2022/06/09 04:52:30;;;;;;;7.75;1.92;;;;;;;15.29;59.43;100176.44;5016026;28;20085;-65
2022/06/09 04:54:57;;;;;;;3.80;1.60;;;;;;;15.22;59.51;100176.47;5017081;28;20176;-65
2022/06/09 04:57:24;;;;;;;3.35;1.70;;;;;;;15.42;59.09;100178.34;5016702;28;20053;-65
2022/06/09 04:59:50;;;;;;;4.10;2.00;;;;;;;15.44;59.00;100176.28;4999856;28;20116;-65
2022/06/09 05:02:17;;;;;;;4.47;1.75;;;;;;;15.33;59.32;100190.38;5017442;28;20145;-65
2022/06/09 05:04:44;;;;;;;7.00;1.83;;;;;;;15.41;59.19;100193.75;5015528;28;20088;-65
2022/06/09 05:07:11;;;;;;;4.97;1.30;;;;;;;15.25;58.97;100194.94;5016380;28;20097;-64
2022/06/09 05:09:37;;;;;;;6.40;1.65;;;;;;;15.23;58.97;100204.31;4998523;28;20498;-66
2022/06/09 05:12:04;;;;;;;4.28;1.30;;;;;;;15.29;58.88;100195.38;5016089;28;20505;-66
2022/06/09 05:14:31;;;;;;;3.42;1.20;;;;;;;15.27;59.21;100194.75;5015821;28;20050;-66
2022/06/09 05:16:57;;;;;;;3.78;1.20;;;;;;;15.28;58.99;100209.09;5015365;28;20132;-65
2022/06/09 05:19:24;;;;;;;6.78;2.45;;;;;;;15.45;58.50;100203.09;5015424;28;20132;-66
2022/06/09 05:21:50;;;;;;;4.03;1.23;;;;;;;15.23;59.22;100210.53;5016719;28;20431;-65
2022/06/09 05:24:17;;;;;;;5.55;1.30;;;;;;;15.41;58.63;100214.53;5016543;28;20096;-65
2022/06/09 05:26:43;;;;;;;3.45;1.23;;;;;;;15.21;59.55;100209.91;5015133;28;20467;-65
2022/06/09 05:29:10;;;;;;;5.00;1.50;;;;;;;15.18;59.54;100218.41;5015774;28;20450;-65
2022/06/09 05:31:36;;;;;;;5.05;1.30;;;;;;;15.27;59.39;100220.94;5015361;28;20052;-65
2022/06/09 05:34:03;;;;;;;5.97;1.20;;;;;;;15.25;59.31;100223.84;5015455;28;20175;-65
2022/06/09 05:36:31;;;;;;;7.40;1.52;;;;;;;15.34;59.28;100228.03;5015665;28;20107;-65
2022/06/09 05:47:14;;;;;;;4.53;1.40;;;;;;;15.33;59.33;100245.28;5021583;28;20045;-66
2022/06/09 05:49:40;;;;;;;3.80;1.20;;;;;;;15.53;58.74;100239.91;5015081;28;20061;-65
2022/06/09 05:52:07;;;;;;;9.40;1.48;;;;;;;15.49;58.95;100246.78;5015369;28;20510;-65
2022/06/09 05:54:34;;;;;;;4.97;1.30;;;;;;;15.54;58.50;100251.59;5014690;28;20085;-65
2022/06/09 05:57:00;;;;;;;10.38;1.65;;;;;;;15.58;58.47;100248.25;5014608;28;20089;-65
2022/06/09 05:59:27;;;;;;;9.63;3.03;;;;;;;15.51;59.12;100252.81;5015317;28;20116;-66
2022/06/09 06:01:53;;;;;;;6.60;2.33;;;;;;;15.59;58.94;100254.50;5015103;28;20049;-65
2022/06/09 06:04:21;;;;;;;10.13;1.30;;;;;;;15.38;59.52;100250.91;5015771;28;20049;-65
2022/06/09 06:06:47;;;;;;;4.80;1.17;;;;;;;15.32;59.73;100264.41;5014979;28;20141;-65
2022/06/09 06:09:18;;;;;;;5.68;1.30;;;;;;;15.58;58.91;100264.50;5015007;28;20128;-65
2022/06/09 06:11:47;;;;;;;3.88;1.90;;;;;;;15.77;58.38;100271.00;5014612;28;20433;-67
2022/06/09 06:14:15;;;;;;;7.07;1.60;;;;;;;15.58;58.55;100275.31;5015470;28;20076;-67
2022/06/09 06:16:42;;;;;;;2.38;1.20;;;;;;;15.48;58.81;100275.69;5014753;28;20046;-67
2022/06/09 06:19:12;;;;;;;3.72;1.00;;;;;;;15.78;58.09;100274.53;5015331;28;20054;-67
2022/06/09 06:21:41;;;;;;;5.00;1.25;;;;;;;15.68;58.33;100283.88;5015259;28;20045;-67
2022/06/09 06:24:09;;;;;;;5.60;1.40;;;;;;;15.77;58.25;100283.69;5015226;28;20057;-67
2022/06/09 06:26:36;;;;;;;4.25;0.98;;;;;;;16.03;57.68;100282.91;5015051;28;20054;-67
2022/06/09 06:29:05;;;;;;;3.03;1.17;;;;;;;15.89;57.86;100288.28;5015249;28;20045;-67
2022/06/09 06:31:31;;;;;;;6.10;1.38;;;;;;;15.92;58.16;100292.47;5015173;28;20046;-68
2022/06/09 06:33:58;;;;;;;7.13;1.65;;;;;;;15.92;58.32;100287.06;5015167;28;20061;-68
2022/06/09 06:36:25;;;;;;;4.20;1.90;;;;;;;15.65;59.17;100295.09;5015464;28;20050;-68
2022/06/09 06:38:52;;;;;;;4.70;1.20;;;;;;;15.90;58.75;100292.66;5014737;28;20054;-67
2022/06/09 06:41:19;;;;;;;4.95;1.40;;;;;;;15.82;59.08;100298.28;5015110;28;20077;-67
2022/06/09 06:43:48;;;;;;;12.02;1.58;;;;;;;16.14;58.08;100304.75;5014887;28;20100;-67
2022/06/09 06:46:16;;;;;;;5.43;1.63;;;;;;;16.14;58.13;100291.22;5015575;28;20560;-67
2022/06/09 06:48:45;;;;;;;9.52;1.35;;;;;;;16.08;58.34;100296.63;5015538;28;20053;-67
2022/06/09 06:51:12;;;;;;;3.47;1.42;;;;;;;16.28;57.87;100308.31;5015061;28;20469;-67
2022/06/09 06:53:39;;;;;;;3.10;1.70;;;;;;;16.01;59.15;100306.63;5015127;28;20096;-67
2022/06/09 06:56:07;;;;;;;5.63;1.55;;;;;;;16.12;58.57;100304.13;5015074;28;20104;-67
2022/06/09 06:58:35;;;;;;;9.65;1.40;;;;;;;16.04;58.72;100312.44;5015499;28;20525;-67
2022/06/09 07:01:03;;;;;;;5.70;1.70;;;;;;;16.06;58.99;100313.09;5014969;28;20460;-67
2022/06/09 07:03:30;;;;;;;10.50;1.83;;;;;;;16.03;59.37;100321.63;5014915;28;20053;-67
2022/06/09 07:06:01;;;;;;;9.23;1.92;;;;;;;15.97;59.54;100316.19;5016251;28;20049;-67
2022/06/09 07:08:28;;;;;;;6.82;1.70;;;;;;;15.69;60.35;100315.28;5015852;28;20058;-67
2022/06/09 07:10:55;;;;;;;8.60;1.63;;;;;;;15.76;60.12;100322.59;5015492;28;20052;-67
2022/06/09 07:13:23;;;;;;;12.23;1.30;;;;;;;15.84;59.56;100328.63;5015051;28;20100;-67
2022/06/09 07:15:49;;;;;;;6.85;1.60;;;;;;;15.88;59.56;100318.25;5015026;28;20145;-67
2022/06/09 07:18:16;;;;;;;7.53;2.15;;;;;;;15.74;60.32;100324.66;5014804;28;20090;-67
2022/06/09 07:20:43;;;;;;;8.13;2.03;;;;;;;15.62;60.34;100327.94;5014690;28;20046;-67
2022/06/09 07:23:10;;;;;;;2.60;1.45;;;;;;;15.47;61.13;100338.91;5015384;28;20057;-67
2022/06/09 07:25:37;;;;;;;7.20;1.10;;;;;;;15.61;60.71;100334.38;5014897;28;20450;-67
2022/06/09 07:28:04;;;;;;;12.82;1.85;;;;;;;15.54;60.88;100344.34;5015193;28;20410;-67
2022/06/09 07:30:31;;;;;;;5.10;1.40;;;;;;;15.32;61.61;100350.88;5016467;28;20061;-67
2022/06/09 07:32:58;;;;;;;4.75;1.10;;;;;;;15.33;61.60;100355.25;5014928;28;20078;-67
2022/06/09 07:35:28;;;;;;;3.33;1.35;;;;;;;15.32;61.76;100356.28;5014619;28;20498;-67
2022/06/09 07:37:55;;;;;;;5.97;1.50;;;;;;;15.34;61.77;100356.94;5014557;28;20454;-67
2022/06/09 07:40:22;;;;;;;5.10;1.58;;;;;;;15.25;61.96;100357.09;5016839;28;20081;-67
2022/06/09 07:42:50;;;;;;;7.88;1.48;;;;;;;15.42;61.57;100359.47;5014498;28;20077;-68
2022/06/09 07:45:17;;;;;;;3.95;1.48;;;;;;;15.21;62.10;100366.63;5014948;28;20454;-67
2022/06/09 07:47:44;;;;;;;11.68;1.83;;;;;;;15.23;62.36;100369.16;5015441;28;20077;-67
2022/06/09 07:50:12;;;;;;;4.75;1.40;;;;;;;15.15;62.54;100374.69;5016145;28;20084;-67
2022/06/09 07:52:44;;;;;;;5.50;2.00;;;;;;;15.18;62.57;100379.69;5018016;28;20042;-67
2022/06/09 07:55:13;;;;;;;7.53;1.58;;;;;;;15.00;63.32;100381.06;5018863;28;20057;-67
2022/06/09 07:57:40;;;;;;;4.22;1.30;;;;;;;15.11;63.01;100390.47;5017801;28;20458;-67
2022/06/09 08:00:08;;;;;;;6.18;1.42;;;;;;;15.14;62.80;100391.94;5017659;28;20054;-67
2022/06/09 08:02:35;;;;;;;2.78;1.42;;;;;;;15.12;63.09;100394.00;5017809;28;20042;-68
2022/06/09 08:05:03;;;;;;;8.23;1.80;;;;;;;15.20;62.64;100397.41;5017535;28;20076;-68
2022/06/09 08:07:29;;;;;;;4.95;1.50;;;;;;;15.18;62.79;100394.03;5019449;28;20045;-67
2022/06/09 08:09:56;;;;;;;5.93;1.48;;;;;;;15.21;62.85;100404.47;5019467;28;20141;-67
2022/06/09 08:12:23;;;;;;;5.20;1.58;;;;;;;15.10;63.66;100402.31;5019021;28;20042;-68
2022/06/09 08:14:49;;;;;;;6.63;2.03;;;;;;;15.20;64.09;100408.19;5018275;28;20078;-67
2022/06/09 08:17:16;;;;;;;6.75;1.65;;;;;;;15.20;64.20;100405.50;5018155;28;20132;-67
2022/06/09 08:19:45;;;;;;;18.67;9.48;;;;;;;15.23;64.51;100413.22;5018995;28;20057;-67
2022/06/09 08:22:11;;;;;;;10.65;3.40;;;;;;;15.25;65.13;100405.72;5017555;28;20085;-67
2022/06/09 08:24:38;;;;;;;6.30;2.50;;;;;;;15.17;65.57;100408.59;5018311;28;20140;-67
2022/06/09 08:27:05;;;;;;;7.05;2.20;;;;;;;15.25;65.71;100411.13;5019085;28;20061;-67
2022/06/09 08:29:32;;;;;;;11.30;2.30;;;;;;;15.33;65.65;100417.41;5017373;28;20081;-67
2022/06/09 08:31:59;;;;;;;10.43;1.88;;;;;;;15.27;65.82;100419.06;5017262;28;20136;-67
2022/06/09 08:34:26;;;;;;;5.88;2.15;;;;;;;15.21;65.91;100423.38;5018608;28;20057;-67
2022/06/09 08:36:53;;;;;;;13.15;2.03;;;;;;;15.29;65.87;100421.53;5018956;28;20077;-67
2022/06/09 08:39:20;;;;;;;5.32;1.90;;;;;;;15.33;66.06;100429.09;5018535;28;20058;-67
2022/06/09 08:42:16;;;;;;;12.68;1.95;;;;;;;15.41;65.68;100428.09;5019037;28;20085;-67
2022/06/09 08:44:55;;;;;;;7.20;2.03;;;;;;;15.48;65.07;100431.66;4948471;28;20139;-67
2022/06/09 08:47:26;;;;;;;6.45;2.00;;;;;;;15.50;64.75;100435.00;5017943;28;20045;-67
2022/06/09 08:50:10;;;;;;;10.63;2.35;;;;;;;15.49;65.30;100449.53;5018543;28;20096;-67
2022/06/09 08:52:44;;;;;;;10.52;2.45;;;;;;;15.52;64.85;100445.59;5018356;28;20481;-67
2022/06/09 08:55:26;;;;;;;9.00;2.45;;;;;;;15.19;65.24;100452.47;5017123;28;20077;-68
2022/06/09 08:57:54;;;;;;;;;;;;;;;15.41;64.85;100445.13;5017016;28;20085;-68
2022/06/09 09:00:27;;;;;;;6.07;2.17;;;;;;;15.51;64.35;100457.47;5017349;28;19975;-68
2022/06/09 09:03:06;;;;;;;7.82;1.90;;;;;;;15.66;63.87;100456.31;5018144;28;20065;-67
2022/06/09 09:05:54;;;;;;;6.85;1.95;;;;;;;15.69;63.93;100455.09;5019038;28;20126;-67
2022/06/09 09:08:21;;;;;;;7.38;2.47;;;;;;;15.53;63.85;100461.63;5018526;28;20137;-67
2022/06/09 09:11:29;;;;;;;5.38;1.83;;;;;;;15.51;63.19;100457.47;5000972;28;20053;-67
2022/06/09 09:14:01;;;;;;;3.83;1.67;;;;;;;15.49;63.58;100460.34;5017493;28;20429;-67
2022/06/09 09:17:00;;;;;;;3.75;1.60;;;;;;;15.50;63.46;100467.44;5017343;28;20438;-68
2022/06/09 09:19:45;;;;;;;5.32;2.13;;;;;;;15.41;63.60;100464.06;5018263;28;20081;-67
2022/06/09 09:22:24;;;;;;;11.20;2.15;;;;;;;15.64;62.46;100463.81;5018045;28;20078;-67
2022/06/09 09:25:17;;;;;;;6.03;2.00;;;;;;;15.87;61.49;100468.91;5017009;28;20089;-67
2022/06/09 09:27:46;;;;;;;5.15;1.88;;;;;;;15.81;61.43;100468.88;5017343;28;20398;-67
2022/06/09 09:30:24;;;;;;;5.60;1.55;;;;;;;15.86;61.17;100474.53;5018712;28;20459;-67
2022/06/09 09:32:55;;;;;;;6.60;1.77;;;;;;;15.75;61.80;100469.69;5017012;28;20046;-67
2022/06/09 09:35:31;;;;;;;4.05;1.98;;;;;;;15.83;61.28;100473.03;5017521;28;20089;-67
2022/06/09 09:37:59;;;;;;;4.80;1.70;;;;;;;15.94;61.27;100468.94;5018291;28;20050;-67
2022/06/09 09:40:31;;;;;;;3.40;1.55;;;;;;;15.97;61.26;100467.69;5017457;28;20049;-67
2022/06/09 09:43:05;;;;;;;6.45;2.08;;;;;;;15.92;61.43;100465.59;5017162;28;20106;-67
2022/06/09 09:45:42;;;;;;;3.92;1.67;;;;;;;15.98;61.46;100463.94;5016687;28;20092;-67
2022/06/09 09:48:18;;;;;;;5.60;1.83;;;;;;;15.81;61.94;100466.16;5016627;28;20056;-67
2022/06/09 09:50:52;;;;;;;9.35;3.72;;;;;;;15.91;61.79;100480.16;5001087;28;20077;-67
2022/06/09 09:53:21;;;;;;;5.63;2.80;;;;;;;15.75;62.39;100475.94;5017103;28;20042;-67
2022/06/09 09:56:00;;;;;;;12.52;3.83;;;;;;;15.88;61.84;100481.41;5016552;28;20457;-67
2022/06/09 09:58:39;;;;;;;8.57;2.78;;;;;;;15.93;61.84;100481.63;5017057;28;20054;-67
2022/06/09 10:01:17;;;;;;;11.77;2.20;;;;;;;16.14;61.00;100491.50;5018836;28;20072;-67
2022/06/09 10:09:56;;;;;;;9.57;2.13;;;;;;;16.19;59.45;100491.72;5018221;28;20060;-67
2022/06/09 10:12:41;;;;;;;6.47;1.90;;;;;;;16.23;58.89;100510.25;5016905;28;20413;-68
2022/06/09 10:15:11;;;;;;;8.60;2.25;;;;;;;16.20;59.29;100514.22;5016611;28;20104;-68
2022/06/09 10:17:57;;;;;;;13.52;1.88;;;;;;;16.42;58.91;100514.91;5015152;28;20161;-67
2022/06/09 10:20:48;;;;;;;5.15;1.88;;;;;;;16.07;59.51;100514.16;5015873;28;20504;-67
2022/06/09 10:23:40;;;;;;;5.60;2.38;;;;;;;15.99;59.81;100523.28;5015851;28;20050;-67
2022/06/09 10:26:15;;;;;;;4.90;2.13;;;;;;;15.95;59.63;100525.56;5017001;28;20054;-68
2022/06/09 10:28:57;;;;;;;6.35;2.10;;;;;;;16.08;59.42;100534.75;5015646;28;20054;-67
2022/06/09 10:31:42;;;;;;;4.75;2.20;;;;;;;16.19;59.18;100531.47;5015432;28;20077;-68
2022/06/09 10:34:55;;;;;;;9.80;2.28;;;;;;;16.33;59.25;100532.34;5017641;28;20059;-68
2022/06/09 10:37:38;;;;;;;10.80;2.03;;;;;;;16.36;58.62;100534.66;5007970;28;20439;-68
2022/06/09 10:40:11;;;;;;;6.82;2.00;;;;;;;16.39;58.38;100543.22;5016422;28;20046;-67
2022/06/09 10:43:01;;;;;;;7.25;1.95;;;;;;;16.24;58.75;100541.72;5015002;28;20120;-67
2022/06/09 10:45:43;;;;;;;4.32;2.15;;;;;;;16.22;58.85;100535.66;5003059;28;20054;-67
2022/06/09 10:57:17;;;;;;;4.90;2.22;;;;;;;16.04;59.35;100550.56;5014986;28;20049;-67
2022/06/09 10:59:56;;;;;;;4.82;2.00;;;;;;;16.27;59.05;100541.31;5014460;28;20089;-67
2022/06/09 11:02:26;;;;;;;6.40;1.83;;;;;;;16.46;58.10;100543.25;5015852;28;20068;-67
2022/06/09 11:04:53;;;;;;;6.72;2.03;;;;;;;16.53;57.97;100548.72;5015739;28;20054;-67
2022/06/09 11:07:32;;;;;;;8.93;2.40;;;;;;;16.62;57.82;100553.75;5016090;28;20100;-67
2022/06/09 11:10:12;;;;;;;7.05;2.58;;;;;;;16.43;58.00;100557.19;5016540;28;20049;-67
2022/06/09 11:13:06;;;;;;;5.00;2.33;;;;;;;16.47;57.49;100560.31;5015335;28;20078;-68
2022/06/09 11:15:56;;;;;;;7.90;2.85;;;;;;;16.43;57.52;100554.47;5016032;28;20058;-68
2022/06/09 11:18:25;;;;;;;10.88;2.35;;;;;;;16.50;57.87;100555.34;4997227;28;20077;-68
2022/06/09 11:21:31;;;;;;;5.95;2.13;;;;;;;16.55;57.60;100558.31;5015579;28;20141;-67
2022/06/09 11:24:18;;;;;;;6.63;2.40;;;;;;;16.33;58.81;100556.72;5015240;28;20149;-67
2022/06/09 11:27:11;;;;;;;7.75;2.67;;;;;;;16.33;58.59;100551.31;5018899;28;20108;-67
2022/06/09 11:30:13;;;;;;;6.72;2.47;;;;;;;16.42;58.00;100553.66;5020025;28;20506;-67
2022/06/09 11:33:02;;;;;;;5.88;2.22;;;;;;;16.51;57.62;100554.34;5006480;28;20082;-67
2022/06/09 11:35:41;;;;;;;6.40;2.42;;;;;;;16.37;58.28;100556.13;5011761;28;20080;-67
2022/06/09 11:38:28;;;;;;;7.18;2.60;;;;;;;16.33;58.01;100560.28;5019295;28;20077;-67
2022/06/09 11:41:01;;;;;;;18.15;3.45;;;;;;;16.42;58.10;100550.94;5019160;28;20106;-68
2022/06/09 11:44:03;;;;;;;8.52;3.00;;;;;;;16.37;58.53;100556.13;5017754;28;20568;-68
2022/06/09 11:46:34;;;;;;;6.50;2.33;;;;;;;16.54;57.63;100562.06;5019214;28;20050;-68
2022/06/09 11:49:15;;;;;;;6.23;2.30;;;;;;;16.54;57.30;100561.19;5019625;28;20141;-68
2022/06/09 11:51:42;;;;;;;9.30;2.90;;;;;;;16.61;56.89;100562.91;5017917;28;20096;-68
2022/06/09 11:54:34;;;;;;;7.47;2.30;;;;;;;16.59;56.97;100559.56;5019785;28;20483;-68
2022/06/09 11:57:16;;;;;;;8.07;2.55;;;;;;;16.37;58.44;100568.84;5019417;28;20137;-67
2022/06/09 12:00:24;;;;;;;21.42;3.63;;;;;;;16.64;57.61;100561.66;5019285;28;20084;-67
2022/06/09 12:03:11;;;;;;;9.32;2.90;;;;;;;16.61;57.48;100557.50;4992006;28;20137;-67
2022/06/09 12:05:52;;;;;;;6.63;2.97;;;;;;;16.75;57.89;100547.53;5018438;28;20541;-67
2022/06/09 12:08:31;;;;;;;6.75;2.90;;;;;;;16.91;57.45;100562.56;5018708;28;20421;-67
2022/06/09 12:11:06;;;;;;;12.20;3.58;;;;;;;17.00;57.13;100561.31;5020054;28;20085;-71
2022/06/09 12:13:45;;;;;;;5.22;2.78;;;;;;;16.72;57.91;100566.06;5018878;28;20073;-72
2022/06/09 12:16:31;;;;;;;11.88;3.08;;;;;;;16.66;58.48;100565.84;5017872;28;20482;-72